PWSweather.com
Personal Weather Stations
Station Observations
UISISLE1
Newport, Isle ofWight, ISLE OF WIGHT PO30 2JX

NewportIsle ofWight, ISLE OF WIGHT PO30 2JX

Lat: 50.72, Lon: -1.27

Elevation: 45

Station Type: Davis Vantage Pro Plus

http://www.isleofwightweather.co.uk

High Low Average
Temperature 57.8°F14.3°C 50.4°F10.2°C 55.8°F13.2°C
Dew Point 56.3°F13.5°C 47.3°F8.5°C 53.9°F12.2°C
Winds 5.0 mph 8.0 kmh Calm Calm Calm SCalm S
Wind Gusts 6.2 mph10.0 kmh -- 1.0 mph1.6 kmh
Humidity 96% 86% 93%
Pressure 30.24 in1024.0 mb 30.03 in1016.9 mb -
Precipitation 0.09 in2.3 mm - -
Hour Temp Dew Point Humidity Winds Wind Gusts Pressure Precip Precip Rate Daily Precip Total
12:00 AM 56.5°F13.6°C 53.0°F11.7°C 88% 2.3 mph SW3.7 kmh SW 5.0 mph8.0 kmh 30.05 in1017.6 mb - 0.00 in0.0 mm 0.00 in0.0 mm
12:15 AM 56.6°F13.7°C 52.8°F11.6°C 87% 1.2 mph W1.9 kmh W 4.1 mph6.6 kmh 30.05 in1017.6 mb - 0.00 in0.0 mm 0.00 in0.0 mm
12:30 AM 56.5°F13.6°C 52.4°F11.3°C 86% 0.5 mph WSW0.8 kmh WSW 3.0 mph4.8 kmh 30.05 in1017.6 mb - 0.00 in0.0 mm 0.00 in0.0 mm
12:45 AM 56.3°F13.5°C 52.2°F11.2°C 86% Calm Calm -- 30.05 in1017.6 mb - 0.00 in0.0 mm 0.00 in0.0 mm
01:00 AM 55.8°F13.2°C 51.7°F10.9°C 86% Calm Calm -- 30.05 in1017.6 mb - 0.00 in0.0 mm 0.00 in0.0 mm
01:15 AM 55.3°F12.9°C 51.2°F10.7°C 86% Calm Calm -- 30.04 in1017.3 mb - 0.00 in0.0 mm 0.00 in0.0 mm
01:30 AM 54.5°F12.5°C 50.4°F10.2°C 86% Calm Calm -- 30.04 in1017.3 mb - 0.00 in0.0 mm 0.00 in0.0 mm
01:45 AM 53.6°F12.0°C 49.6°F9.8°C 86% Calm Calm -- 30.04 in1017.3 mb - 0.00 in0.0 mm 0.00 in0.0 mm
02:00 AM 52.9°F11.6°C 49.1°F9.5°C 87% Calm Calm -- 30.04 in1017.3 mb - 0.00 in0.0 mm 0.00 in0.0 mm
02:15 AM 52.2°F11.2°C 48.8°F9.3°C 88% Calm Calm -- 30.04 in1017.3 mb - 0.00 in0.0 mm 0.00 in0.0 mm
02:30 AM 51.6°F10.9°C 48.2°F9.0°C 88% Calm Calm -- 30.04 in1017.3 mb - 0.00 in0.0 mm 0.00 in0.0 mm
02:45 AM 51.2°F10.7°C 47.8°F8.8°C 88% Calm Calm -- 30.04 in1017.3 mb - 0.00 in0.0 mm 0.00 in0.0 mm
03:00 AM 50.8°F10.4°C 47.4°F8.6°C 88% Calm Calm -- 30.04 in1017.3 mb - 0.00 in0.0 mm 0.00 in0.0 mm
03:15 AM 50.4°F10.2°C 47.3°F8.5°C 89% 0.1 mph WSW0.2 kmh WSW 1.0 mph1.6 kmh 30.04 in1017.3 mb - 0.00 in0.0 mm 0.00 in0.0 mm
03:30 AM 50.5°F10.3°C 47.7°F8.7°C 90% 0.5 mph SSW0.8 kmh SSW 2.0 mph3.2 kmh 30.03 in1016.9 mb - 0.00 in0.0 mm 0.00 in0.0 mm
03:45 AM 50.6°F10.3°C 48.1°F8.9°C 91% Calm Calm -- 30.04 in1017.3 mb - 0.00 in0.0 mm 0.00 in0.0 mm
04:00 AM 50.5°F10.3°C 48.0°F8.9°C 91% Calm Calm -- 30.04 in1017.3 mb - 0.00 in0.0 mm 0.00 in0.0 mm
04:15 AM 50.7°F10.4°C 48.5°F9.2°C 92% Calm Calm -- 30.04 in1017.3 mb - 0.00 in0.0 mm 0.00 in0.0 mm
04:30 AM 51.0°F10.6°C 48.7°F9.3°C 92% 0.5 mph SSW0.8 kmh SSW 3.0 mph4.8 kmh 30.04 in1017.3 mb - 0.00 in0.0 mm 0.00 in0.0 mm
04:45 AM 51.8°F11.0°C 49.9°F9.9°C 93% Calm Calm -- 30.04 in1017.3 mb - 0.00 in0.0 mm 0.00 in0.0 mm
05:00 AM 52.6°F11.4°C 50.6°F10.3°C 93% Calm Calm -- 30.04 in1017.3 mb - 0.00 in0.0 mm 0.00 in0.0 mm
05:15 AM 53.1°F11.7°C 51.4°F10.8°C 94% Calm Calm -- 30.05 in1017.6 mb - 0.00 in0.0 mm 0.00 in0.0 mm
05:30 AM 53.3°F11.8°C 51.6°F10.9°C 94% Calm Calm -- 30.05 in1017.6 mb - 0.00 in0.0 mm 0.00 in0.0 mm
05:45 AM 53.5°F11.9°C 51.8°F11.0°C 94% Calm Calm -- 30.05 in1017.6 mb - 0.00 in0.0 mm 0.00 in0.0 mm
06:00 AM 53.8°F12.1°C 52.1°F11.2°C 94% Calm Calm -- 30.05 in1017.6 mb - 0.00 in0.0 mm 0.00 in0.0 mm
06:15 AM 54.2°F12.3°C 52.8°F11.6°C 95% 4.0 mph SW6.4 kmh SW 4.0 mph6.4 kmh 30.06 in1017.9 mb - 0.00 in0.0 mm 0.00 in0.0 mm
06:30 AM 54.6°F12.6°C 53.2°F11.8°C 95% Calm Calm -- 30.06 in1017.9 mb - 0.01 in0.3 mm 0.01 in0.3 mm
06:45 AM 54.8°F12.7°C 53.4°F11.9°C 95% 0.2 mph WSW0.3 kmh WSW 3.0 mph4.8 kmh 30.06 in1017.9 mb - 0.00 in0.0 mm 0.01 in0.3 mm
07:00 AM 55.5°F13.1°C 54.1°F12.3°C 95% Calm Calm -- 30.06 in1017.9 mb - 0.01 in0.3 mm 0.02 in0.5 mm
07:15 AM 55.7°F13.2°C 54.3°F12.4°C 95% Calm Calm -- 30.07 in1018.3 mb - 0.01 in0.3 mm 0.02 in0.5 mm
07:30 AM 55.9°F13.3°C 54.5°F12.5°C 95% 2.1 mph SW3.4 kmh SW 3.0 mph4.8 kmh 30.07 in1018.3 mb - 0.01 in0.3 mm 0.03 in0.8 mm
07:45 AM 55.8°F13.2°C 54.4°F12.4°C 95% 1.6 mph SW2.6 kmh SW 2.0 mph3.2 kmh 30.07 in1018.3 mb - 0.00 in0.0 mm 0.03 in0.8 mm
08:00 AM 55.8°F13.2°C 54.4°F12.4°C 95% Calm Calm -- 30.07 in1018.3 mb - 0.00 in0.0 mm 0.03 in0.8 mm
08:15 AM 55.8°F13.2°C 54.4°F12.4°C 95% Calm Calm -- 30.08 in1018.6 mb - 0.00 in0.0 mm 0.03 in0.8 mm
08:30 AM 55.8°F13.2°C 54.4°F12.4°C 95% Calm Calm -- 30.08 in1018.6 mb - 0.00 in0.0 mm 0.03 in0.8 mm
08:45 AM 56.0°F13.3°C 54.6°F12.6°C 95% Calm Calm -- 30.09 in1019.0 mb - 0.00 in0.0 mm 0.03 in0.8 mm
09:00 AM 56.2°F13.4°C 54.8°F12.7°C 95% Calm Calm -- 30.09 in1019.0 mb - 0.00 in0.0 mm 0.03 in0.8 mm
09:15 AM 56.4°F13.6°C 55.0°F12.8°C 95% Calm Calm -- 30.09 in1019.0 mb - 0.00 in0.0 mm 0.03 in0.8 mm
09:30 AM 56.7°F13.7°C 55.3°F12.9°C 95% Calm Calm -- 30.09 in1019.0 mb - 0.00 in0.0 mm 0.03 in0.8 mm
09:45 AM 57.1°F13.9°C 55.7°F13.2°C 95% Calm Calm -- 30.09 in1019.0 mb - 0.00 in0.0 mm 0.03 in0.8 mm
10:00 AM 57.3°F14.1°C 56.2°F13.4°C 96% Calm Calm -- 30.09 in1019.0 mb - 0.00 in0.0 mm 0.03 in0.8 mm
10:15 AM 57.5°F14.2°C 56.1°F13.4°C 95% Calm Calm 2.0 mph3.2 kmh 30.10 in1019.3 mb - 0.00 in0.0 mm 0.03 in0.8 mm
10:30 AM 57.6°F14.2°C 56.2°F13.4°C 95% Calm Calm -- 30.10 in1019.3 mb - 0.00 in0.0 mm 0.03 in0.8 mm
10:45 AM 57.4°F14.1°C 56.0°F13.3°C 95% Calm Calm -- 30.11 in1019.6 mb - 0.00 in0.0 mm 0.03 in0.8 mm
11:00 AM 57.3°F14.1°C 55.9°F13.3°C 95% Calm Calm -- 30.11 in1019.6 mb - 0.01 in0.3 mm 0.04 in1.0 mm
11:15 AM 57.1°F13.9°C 55.7°F13.2°C 95% 1.5 mph SW2.4 kmh SW 3.0 mph4.8 kmh 30.11 in1019.6 mb - 0.00 in0.0 mm 0.04 in1.0 mm
11:30 AM 56.9°F13.8°C 55.5°F13.1°C 95% Calm Calm -- 30.11 in1019.6 mb - 0.02 in0.5 mm 0.06 in1.5 mm
11:45 AM 56.9°F13.8°C 55.5°F13.1°C 95% Calm Calm -- 30.10 in1019.3 mb - 0.02 in0.5 mm 0.07 in1.8 mm
12:00 PM 57.1°F13.9°C 55.7°F13.2°C 95% Calm Calm -- 30.10 in1019.3 mb - 0.00 in0.0 mm 0.07 in1.8 mm
12:15 PM 57.2°F14.0°C 55.8°F13.2°C 95% Calm Calm -- 30.10 in1019.3 mb - 0.01 in0.3 mm 0.08 in2.0 mm
12:30 PM 57.4°F14.1°C 56.0°F13.3°C 95% Calm Calm -- 30.11 in1019.6 mb - 0.00 in0.0 mm 0.08 in2.0 mm
12:45 PM 57.4°F14.1°C 56.0°F13.3°C 95% Calm Calm -- 30.11 in1019.6 mb - 0.01 in0.3 mm 0.09 in2.3 mm
01:00 PM 57.4°F14.1°C 56.0°F13.3°C 95% Calm Calm -- 30.11 in1019.6 mb - 0.00 in0.0 mm 0.09 in2.3 mm
01:15 PM 57.5°F14.2°C 56.0°F13.3°C 95% Calm Calm -- 30.11 in1019.6 mb - 0.00 in0.0 mm 0.09 in2.3 mm
01:30 PM 57.5°F14.2°C 56.0°F13.3°C 95% Calm Calm -- 30.11 in1019.6 mb - 0.00 in0.0 mm 0.09 in2.3 mm
01:45 PM 57.6°F14.2°C 56.2°F13.4°C 95% Calm Calm -- 30.11 in1019.6 mb - 0.00 in0.0 mm 0.09 in2.3 mm
02:00 PM 57.7°F14.3°C 56.3°F13.5°C 95% 0.1 mph NNW0.2 kmh NNW -- 30.11 in1019.6 mb - 0.00 in0.0 mm 0.09 in2.3 mm
02:15 PM 57.6°F14.2°C 56.1°F13.4°C 95% Calm Calm -- 30.11 in1019.6 mb - 0.00 in0.0 mm 0.09 in2.3 mm
02:30 PM 57.7°F14.3°C 56.3°F13.5°C 95% 1.1 mph NW1.8 kmh NW 2.1 mph3.4 kmh 30.11 in1019.6 mb - 0.00 in0.0 mm 0.09 in2.3 mm
02:45 PM 57.7°F14.3°C 56.0°F13.3°C 94% 0.1 mph NNW0.2 kmh NNW -- 30.11 in1019.6 mb - 0.00 in0.0 mm 0.09 in2.3 mm
03:00 PM 57.7°F14.3°C 56.0°F13.3°C 94% 1.7 mph N2.7 kmh N 2.1 mph3.4 kmh 30.11 in1019.6 mb - 0.00 in0.0 mm 0.09 in2.3 mm
03:15 PM 57.8°F14.3°C 56.1°F13.4°C 94% 0.6 mph N1.0 kmh N 2.1 mph3.4 kmh 30.11 in1019.6 mb - 0.00 in0.0 mm 0.09 in2.3 mm
03:30 PM 57.8°F14.3°C 56.1°F13.4°C 94% 1.7 mph NW2.7 kmh NW 3.1 mph5.0 kmh 30.11 in1019.6 mb - 0.00 in0.0 mm 0.09 in2.3 mm
03:45 PM 57.7°F14.3°C 55.7°F13.2°C 93% Calm Calm -- 30.12 in1020.0 mb - 0.00 in0.0 mm 0.09 in2.3 mm
04:00 PM 57.8°F14.3°C 55.8°F13.2°C 93% 0.7 mph NE1.1 kmh NE 1.0 mph1.6 kmh 30.12 in1020.0 mb - 0.00 in0.0 mm 0.09 in2.3 mm
04:15 PM 57.8°F14.3°C 55.8°F13.2°C 93% Calm Calm -- 30.12 in1020.0 mb - 0.00 in0.0 mm 0.09 in2.3 mm
04:30 PM 57.7°F14.3°C 55.7°F13.2°C 93% Calm Calm -- 30.13 in1020.3 mb - 0.00 in0.0 mm 0.09 in2.3 mm
04:45 PM 57.6°F14.2°C 55.6°F13.1°C 93% Calm Calm -- 30.13 in1020.3 mb - 0.00 in0.0 mm 0.09 in2.3 mm
05:00 PM 57.5°F14.2°C 55.5°F13.1°C 93% Calm Calm -- 30.13 in1020.3 mb - 0.00 in0.0 mm 0.09 in2.3 mm
05:15 PM 57.5°F14.2°C 55.5°F13.1°C 93% Calm Calm -- 30.14 in1020.7 mb - 0.00 in0.0 mm 0.09 in2.3 mm
05:30 PM 57.3°F14.1°C 55.3°F12.9°C 93% Calm Calm -- 30.14 in1020.7 mb - 0.00 in0.0 mm 0.09 in2.3 mm
05:45 PM 57.3°F14.1°C 55.6°F13.1°C 94% Calm Calm -- 30.15 in1021.0 mb - 0.00 in0.0 mm 0.09 in2.3 mm
06:00 PM 57.1°F13.9°C 55.1°F12.8°C 93% Calm Calm -- 30.15 in1021.0 mb - 0.00 in0.0 mm 0.09 in2.3 mm
06:15 PM 56.9°F13.8°C 54.9°F12.7°C 93% Calm Calm -- 30.16 in1021.3 mb - 0.00 in0.0 mm 0.09 in2.3 mm
06:30 PM 56.8°F13.8°C 55.1°F12.8°C 94% Calm Calm -- 30.17 in1021.7 mb - 0.00 in0.0 mm 0.09 in2.3 mm
06:45 PM 56.6°F13.7°C 54.9°F12.7°C 94% Calm Calm -- 30.17 in1021.7 mb - 0.00 in0.0 mm 0.09 in2.3 mm
07:00 PM 56.5°F13.6°C 54.8°F12.7°C 94% Calm Calm -- 30.18 in1022.0 mb - 0.00 in0.0 mm 0.09 in2.3 mm
07:15 PM 56.6°F13.7°C 54.9°F12.7°C 94% 1.4 mph NE2.3 kmh NE 5.1 mph8.2 kmh 30.18 in1022.0 mb - 0.00 in0.0 mm 0.09 in2.3 mm
07:30 PM 56.7°F13.7°C 55.0°F12.8°C 94% Calm Calm -- 30.18 in1022.0 mb - 0.00 in0.0 mm 0.09 in2.3 mm
07:45 PM 56.7°F13.7°C 55.0°F12.8°C 94% Calm Calm -- 30.19 in1022.4 mb - 0.00 in0.0 mm 0.09 in2.3 mm
08:00 PM 56.8°F13.8°C 55.1°F12.8°C 94% Calm Calm -- 30.19 in1022.4 mb - 0.00 in0.0 mm 0.09 in2.3 mm
08:15 PM 56.8°F13.8°C 55.4°F13.0°C 95% Calm Calm -- 30.20 in1022.7 mb - 0.00 in0.0 mm 0.09 in2.3 mm
08:30 PM 56.8°F13.8°C 55.4°F13.0°C 95% Calm Calm -- 30.20 in1022.7 mb - 0.00 in0.0 mm 0.09 in2.3 mm
08:45 PM 56.8°F13.8°C 55.4°F13.0°C 95% Calm Calm -- 30.21 in1023.0 mb - 0.00 in0.0 mm 0.09 in2.3 mm
09:00 PM 56.8°F13.8°C 55.4°F13.0°C 95% Calm Calm -- 30.21 in1023.0 mb - 0.00 in0.0 mm 0.09 in2.3 mm
09:15 PM 56.8°F13.8°C 55.4°F13.0°C 95% Calm Calm -- 30.22 in1023.4 mb - 0.00 in0.0 mm 0.09 in2.3 mm
09:30 PM 56.8°F13.8°C 55.4°F13.0°C 95% 2.2 mph NNE3.5 kmh NNE 5.1 mph8.2 kmh 30.22 in1023.4 mb - 0.00 in0.0 mm 0.09 in2.3 mm
09:45 PM 56.5°F13.6°C 55.1°F12.8°C 95% 5.0 mph NE8.0 kmh NE 6.2 mph10.0 kmh 30.22 in1023.4 mb - 0.00 in0.0 mm 0.09 in2.3 mm
10:00 PM 56.2°F13.4°C 54.8°F12.7°C 95% 0.2 mph NNE0.3 kmh NNE 1.0 mph1.6 kmh 30.23 in1023.7 mb - 0.00 in0.0 mm 0.09 in2.3 mm
10:15 PM 56.3°F13.5°C 54.9°F12.7°C 95% Calm Calm 1.0 mph1.6 kmh 30.23 in1023.7 mb - 0.00 in0.0 mm 0.09 in2.3 mm
10:30 PM 56.4°F13.6°C 55.0°F12.8°C 95% 0.1 mph NE0.2 kmh NE 1.0 mph1.6 kmh 30.23 in1023.7 mb - 0.00 in0.0 mm 0.09 in2.3 mm
10:45 PM 56.4°F13.6°C 55.0°F12.8°C 95% Calm Calm -- 30.23 in1023.7 mb - 0.00 in0.0 mm 0.09 in2.3 mm
11:00 PM 56.4°F13.6°C 55.0°F12.8°C 95% Calm Calm -- 30.23 in1023.7 mb - 0.00 in0.0 mm 0.11 in2.8 mm
11:15 PM 56.3°F13.5°C 54.9°F12.7°C 95% Calm Calm -- 30.23 in1023.7 mb - 0.00 in0.0 mm 0.11 in2.8 mm
11:30 PM 56.1°F13.4°C 54.6°F12.6°C 95% Calm Calm -- 30.24 in1024.0 mb - 0.00 in0.0 mm 0.11 in2.8 mm
11:45 PM 55.7°F13.2°C 54.3°F12.4°C 95% 0.9 mph NE1.4 kmh NE 4.0 mph6.4 kmh 30.24 in1024.0 mb - 0.00 in0.0 mm 0.11 in2.8 mm